LFRKEGTE

Guest
Details From LFRK - Caen Carpiquet
To EGTE - Exeter
Flight Number -
Tags generated
Created
Modified
Stats Distance 148 nm / 274 km
Max Altitude 14,900 ft / 4,542 m
Waypoints 3
Social Downloads 0
Likes 0
Share VATSIM

Download

Looking for another format? Having issues loading an existing format? Contact us
Advertisement - Login to hide

Notes

Basic altitude profile: - Ascent Rate: 2500ft/min - Ascent Speed: 250kts - Cruise Altitude: 18000ft - Cruise Speed: 300kts - Descent Rate: 1500ft/min - Descent Speed: 250kts Options: - Use NATs: yes - Use PACOTS: yes - Use low airways: yes - Use high airways: yes

Route

LFRK ORTAC EGTE

ID Type Via Altitude Latitude Longitude Leg Dist Tot Dist Heading (true) Name
O LFRK APT - 0 ft / 0 m 49.17512˚ -0.45194˚ - 0 nm - Caen Carpiquet
ORTAC FIX - 14,900 ft / 4,542 m 49.99917˚ -2.00500˚ 78 nm 78 nm 310° / 309° -
O EGTE APT - 0 ft / 0 m 50.73426˚ -3.41400˚ 69 nm 147 nm 310° / 309° Exeter

Altitude Profile

Advertisement - Login to hide

LFRK

Details ICAO LFRK (CFR)
Name Caen Carpiquet
Region France
Timezone Europe/Paris (UTC+1.0)
Stats Elevation 256 ft / 78 m (AMSL)
Location 49.175122° -0.451941°
Runways 2
Magnetic Variation 0.320° W

METAR

LFRK 161330Z AUTO 33010KT 9999 BKN031 BKN039 07/01 Q1020 NOSIG

Decode

TAF

Not found

Departure Runways

ID Width Length Bearing (true) Bearing (mag) Surface Threshold Offset Overrun Length
06 98 ft / 30 m 3,880 ft / 1,183 m 51.68° 52.00° Asphalt 0 ft / 0 m 0 ft / 0 m
13 148 ft / 45 m 6,215 ft / 1,894 m 125.34° 125.66° Asphalt 984 ft / 300 m 0 ft / 0 m
24 98 ft / 30 m 3,880 ft / 1,183 m 231.69° 232.01° Asphalt 0 ft / 0 m 0 ft / 0 m
31 148 ft / 45 m 6,215 ft / 1,894 m 305.36° 305.68° Asphalt 0 ft / 0 m 0 ft / 0 m

EGTE

Details ICAO EGTE (EXT)
Name Exeter
Region United Kingdom
Timezone Europe/London (UTC+0.0)
Stats Elevation 102 ft / 31 m (AMSL)
Location 50.734260° -3.414000°
Runways 1
Magnetic Variation 1.513° W

METAR

EGTE 161320Z 29013KT 270V330 9999 FEW015 08/03 Q1021

Decode

TAF

Not found

Destination Runways

ID Width Length Bearing (true) Bearing (mag) Surface Threshold Offset Overrun Length
08 151 ft / 46 m 6,666 ft / 2,032 m 76.09° 77.60° Asphalt 0 ft / 0 m 0 ft / 0 m
26 151 ft / 46 m 6,666 ft / 2,032 m 256.11° 257.62° Asphalt 0 ft / 0 m 0 ft / 0 m

Approach Navaids

Runway Type Ident Frequency Range Bearing (true) Bearing (mag) Slope Elevation
08 Localiser IET 109.90 MHz 18 nm / 33 km 76.11° 77.63° - 102 ft / 31 m (AMSL)
08 Glidescope IET 109.90 MHz 10 nm / 19 km 76.10° 77.61° 3.00° 50 ft / 15 m (AMSL)
08 DME IET 109.90 MHz 18 nm / 33 km - - - 102 ft / 31 m (AMSL)
26 Localiser IXR 109.90 MHz 18 nm / 33 km 256.10° 257.61° - 102 ft / 31 m (AMSL)
26 Glidescope IXR 109.90 MHz 10 nm / 19 km 256.10° 257.61° 3.50° 58 ft / 18 m (AMSL)
26 DME IXR 109.90 MHz 18 nm / 33 km - - - 102 ft / 31 m (AMSL)